sensor_id;sensor_type;location;lat;lon;timestamp;P1;durP1;ratioP1;P2;durP2;ratioP2
6434;SDS011;3250;42.694;23.278;2023-01-06T00:00:19;15.53;;;7.97;;
6434;SDS011;3250;42.694;23.278;2023-01-06T00:02:45;16.90;;;8.87;;
6434;SDS011;3250;42.694;23.278;2023-01-06T00:05:11;19.17;;;9.83;;
6434;SDS011;3250;42.694;23.278;2023-01-06T00:07:36;19.63;;;9.82;;
6434;SDS011;3250;42.694;23.278;2023-01-06T00:10:03;19.40;;;9.70;;
6434;SDS011;3250;42.694;23.278;2023-01-06T00:12:29;18.43;;;9.30;;
6434;SDS011;3250;42.694;23.278;2023-01-06T00:14:55;21.73;;;8.83;;
6434;SDS011;3250;42.694;23.278;2023-01-06T00:17:22;16.47;;;7.43;;
6434;SDS011;3250;42.694;23.278;2023-01-06T00:19:48;23.20;;;11.02;;
6434;SDS011;3250;42.694;23.278;2023-01-06T00:22:13;33.20;;;14.33;;
6434;SDS011;3250;42.694;23.278;2023-01-06T00:24:38;27.30;;;13.43;;
6434;SDS011;3250;42.694;23.278;2023-01-06T00:27:04;24.03;;;11.80;;
6434;SDS011;3250;42.694;23.278;2023-01-06T00:29:29;22.40;;;9.97;;
6434;SDS011;3250;42.694;23.278;2023-01-06T00:31:57;21.43;;;9.40;;
6434;SDS011;3250;42.694;23.278;2023-01-06T00:34:24;16.73;;;7.67;;
6434;SDS011;3250;42.694;23.278;2023-01-06T00:36:49;17.50;;;9.25;;
6434;SDS011;3250;42.694;23.278;2023-01-06T00:39:15;19.03;;;9.40;;
6434;SDS011;3250;42.694;23.278;2023-01-06T00:41:40;15.73;;;7.80;;
6434;SDS011;3250;42.694;23.278;2023-01-06T00:44:24;16.10;;;7.60;;
6434;SDS011;3250;42.694;23.278;2023-01-06T00:46:49;14.13;;;6.27;;
6434;SDS011;3250;42.694;23.278;2023-01-06T00:49:15;13.73;;;6.87;;
6434;SDS011;3250;42.694;23.278;2023-01-06T00:51:41;12.83;;;7.03;;
6434;SDS011;3250;42.694;23.278;2023-01-06T00:54:07;12.60;;;6.87;;
6434;SDS011;3250;42.694;23.278;2023-01-06T00:56:34;12.23;;;5.87;;
6434;SDS011;3250;42.694;23.278;2023-01-06T00:59:04;9.37;;;5.70;;
6434;SDS011;3250;42.694;23.278;2023-01-06T01:01:30;10.13;;;5.70;;
6434;SDS011;3250;42.694;23.278;2023-01-06T01:03:56;8.68;;;5.60;;
6434;SDS011;3250;42.694;23.278;2023-01-06T01:06:22;9.93;;;5.73;;
6434;SDS011;3250;42.694;23.278;2023-01-06T01:08:51;11.93;;;4.95;;
6434;SDS011;3250;42.694;23.278;2023-01-06T01:11:17;9.70;;;5.68;;
6434;SDS011;3250;42.694;23.278;2023-01-06T01:14:01;7.70;;;5.00;;
6434;SDS011;3250;42.694;23.278;2023-01-06T01:16:26;9.20;;;5.00;;
6434;SDS011;3250;42.694;23.278;2023-01-06T01:18:52;9.10;;;4.93;;
6434;SDS011;3250;42.694;23.278;2023-01-06T01:21:17;8.60;;;3.83;;
6434;SDS011;3250;42.694;23.278;2023-01-06T01:23:43;10.10;;;5.47;;
6434;SDS011;3250;42.694;23.278;2023-01-06T01:26:08;9.53;;;4.30;;
6434;SDS011;3250;42.694;23.278;2023-01-06T01:28:33;10.07;;;4.80;;
6434;SDS011;3250;42.694;23.278;2023-01-06T01:30:59;8.00;;;5.30;;
6434;SDS011;3250;42.694;23.278;2023-01-06T01:33:25;9.20;;;4.63;;
6434;SDS011;3250;42.694;23.278;2023-01-06T01:35:53;8.93;;;4.22;;
6434;SDS011;3250;42.694;23.278;2023-01-06T01:38:18;8.40;;;5.13;;
6434;SDS011;3250;42.694;23.278;2023-01-06T01:40:47;8.33;;;4.90;;
6434;SDS011;3250;42.694;23.278;2023-01-06T01:43:14;8.55;;;5.20;;
6434;SDS011;3250;42.694;23.278;2023-01-06T01:45:39;12.03;;;6.03;;
6434;SDS011;3250;42.694;23.278;2023-01-06T01:48:28;8.00;;;5.22;;
6434;SDS011;3250;42.694;23.278;2023-01-06T01:50:57;7.35;;;4.20;;
6434;SDS011;3250;42.694;23.278;2023-01-06T01:53:35;8.67;;;4.53;;
6434;SDS011;3250;42.694;23.278;2023-01-06T01:56:05;7.70;;;4.35;;
6434;SDS011;3250;42.694;23.278;2023-01-06T01:58:35;4.90;;;3.60;;
6434;SDS011;3250;42.694;23.278;2023-01-06T02:01:04;6.27;;;3.60;;
6434;SDS011;3250;42.694;23.278;2023-01-06T02:03:31;7.72;;;3.55;;
6434;SDS011;3250;42.694;23.278;2023-01-06T02:05:58;8.23;;;3.67;;
6434;SDS011;3250;42.694;23.278;2023-01-06T02:08:35;6.97;;;4.03;;
6434;SDS011;3250;42.694;23.278;2023-01-06T02:11:05;9.80;;;3.80;;
6434;SDS011;3250;42.694;23.278;2023-01-06T02:13:33;7.17;;;3.67;;
6434;SDS011;3250;42.694;23.278;2023-01-06T02:16:21;6.20;;;3.75;;
6434;SDS011;3250;42.694;23.278;2023-01-06T02:21:40;6.85;;;3.80;;
6434;SDS011;3250;42.694;23.278;2023-01-06T02:24:36;4.43;;;3.30;;
6434;SDS011;3250;42.694;23.278;2023-01-06T02:36:17;4.50;;;3.30;;
6434;SDS011;3250;42.694;23.278;2023-01-06T02:41:32;4.70;;;2.87;;
6434;SDS011;3250;42.694;23.278;2023-01-06T02:54:12;9.10;;;3.87;;
6434;SDS011;3250;42.694;23.278;2023-01-06T02:56:44;10.50;;;4.33;;
6434;SDS011;3250;42.694;23.278;2023-01-06T02:59:16;9.48;;;5.25;;
6434;SDS011;3250;42.694;23.278;2023-01-06T03:01:56;10.07;;;5.20;;
6434;SDS011;3250;42.694;23.278;2023-01-06T03:04:29;7.68;;;4.70;;
6434;SDS011;3250;42.694;23.278;2023-01-06T03:06:59;9.52;;;4.55;;
6434;SDS011;3250;42.694;23.278;2023-01-06T03:09:28;5.20;;;3.60;;
6434;SDS011;3250;42.694;23.278;2023-01-06T03:12:06;6.20;;;4.03;;
6434;SDS011;3250;42.694;23.278;2023-01-06T03:14:37;6.43;;;4.00;;
6434;SDS011;3250;42.694;23.278;2023-01-06T03:17:05;6.93;;;4.25;;
6434;SDS011;3250;42.694;23.278;2023-01-06T03:19:31;5.10;;;3.47;;
6434;SDS011;3250;42.694;23.278;2023-01-06T03:21:57;6.97;;;3.70;;
6434;SDS011;3250;42.694;23.278;2023-01-06T03:24:24;6.85;;;4.38;;
6434;SDS011;3250;42.694;23.278;2023-01-06T03:26:50;5.53;;;3.17;;
6434;SDS011;3250;42.694;23.278;2023-01-06T03:29:18;6.57;;;4.20;;
6434;SDS011;3250;42.694;23.278;2023-01-06T03:32:27;6.68;;;4.50;;
6434;SDS011;3250;42.694;23.278;2023-01-06T03:43:45;5.87;;;3.40;;
6434;SDS011;3250;42.694;23.278;2023-01-06T03:46:27;16.85;;;7.60;;
6434;SDS011;3250;42.694;23.278;2023-01-06T03:49:06;7.30;;;4.67;;
6434;SDS011;3250;42.694;23.278;2023-01-06T03:54:35;6.00;;;3.88;;
6434;SDS011;3250;42.694;23.278;2023-01-06T03:57:21;8.77;;;4.88;;
6434;SDS011;3250;42.694;23.278;2023-01-06T04:00:04;13.07;;;5.70;;
6434;SDS011;3250;42.694;23.278;2023-01-06T04:02:34;7.70;;;4.80;;
6434;SDS011;3250;42.694;23.278;2023-01-06T04:07:37;14.98;;;6.70;;
6434;SDS011;3250;42.694;23.278;2023-01-06T04:10:04;9.30;;;5.53;;
6434;SDS011;3250;42.694;23.278;2023-01-06T04:12:31;9.80;;;5.47;;
6434;SDS011;3250;42.694;23.278;2023-01-06T04:15:12;7.95;;;4.53;;
6434;SDS011;3250;42.694;23.278;2023-01-06T04:17:40;7.45;;;3.88;;
6434;SDS011;3250;42.694;23.278;2023-01-06T04:20:07;8.48;;;4.32;;
6434;SDS011;3250;42.694;23.278;2023-01-06T04:22:34;8.32;;;4.32;;
6434;SDS011;3250;42.694;23.278;2023-01-06T04:25:00;5.88;;;4.00;;
6434;SDS011;3250;42.694;23.278;2023-01-06T04:27:25;8.32;;;4.00;;
6434;SDS011;3250;42.694;23.278;2023-01-06T04:29:51;7.03;;;3.90;;
6434;SDS011;3250;42.694;23.278;2023-01-06T04:32:16;6.75;;;4.20;;
6434;SDS011;3250;42.694;23.278;2023-01-06T04:34:42;8.23;;;5.00;;
6434;SDS011;3250;42.694;23.278;2023-01-06T04:37:07;7.30;;;4.00;;
6434;SDS011;3250;42.694;23.278;2023-01-06T04:39:35;8.27;;;4.32;;
6434;SDS011;3250;42.694;23.278;2023-01-06T04:42:01;7.85;;;3.90;;
6434;SDS011;3250;42.694;23.278;2023-01-06T04:44:26;6.40;;;4.07;;
6434;SDS011;3250;42.694;23.278;2023-01-06T04:46:52;7.68;;;4.20;;
6434;SDS011;3250;42.694;23.278;2023-01-06T04:49:17;4.60;;;3.37;;
6434;SDS011;3250;42.694;23.278;2023-01-06T04:51:43;4.33;;;2.83;;
6434;SDS011;3250;42.694;23.278;2023-01-06T04:54:08;7.50;;;4.45;;
6434;SDS011;3250;42.694;23.278;2023-01-06T04:56:33;7.05;;;3.78;;
6434;SDS011;3250;42.694;23.278;2023-01-06T04:58:59;7.03;;;4.50;;
6434;SDS011;3250;42.694;23.278;2023-01-06T05:01:25;7.35;;;4.53;;
6434;SDS011;3250;42.694;23.278;2023-01-06T05:03:50;6.85;;;3.80;;
6434;SDS011;3250;42.694;23.278;2023-01-06T05:06:16;7.37;;;4.63;;
6434;SDS011;3250;42.694;23.278;2023-01-06T05:08:42;6.97;;;4.27;;
6434;SDS011;3250;42.694;23.278;2023-01-06T05:11:10;7.50;;;3.23;;
6434;SDS011;3250;42.694;23.278;2023-01-06T05:13:37;6.53;;;3.50;;
6434;SDS011;3250;42.694;23.278;2023-01-06T05:16:07;6.25;;;3.75;;
6434;SDS011;3250;42.694;23.278;2023-01-06T05:18:34;5.18;;;3.42;;
6434;SDS011;3250;42.694;23.278;2023-01-06T05:20:59;5.23;;;3.10;;
6434;SDS011;3250;42.694;23.278;2023-01-06T05:23:25;6.40;;;3.60;;
6434;SDS011;3250;42.694;23.278;2023-01-06T05:25:50;5.10;;;3.57;;
6434;SDS011;3250;42.694;23.278;2023-01-06T05:28:16;6.00;;;3.75;;
6434;SDS011;3250;42.694;23.278;2023-01-06T05:30:42;7.37;;;3.87;;
6434;SDS011;3250;42.694;23.278;2023-01-06T05:33:08;8.33;;;4.10;;
6434;SDS011;3250;42.694;23.278;2023-01-06T05:35:33;4.07;;;3.03;;
6434;SDS011;3250;42.694;23.278;2023-01-06T05:37:59;9.97;;;4.97;;
6434;SDS011;3250;42.694;23.278;2023-01-06T05:40:24;9.00;;;4.77;;
6434;SDS011;3250;42.694;23.278;2023-01-06T05:42:55;7.37;;;4.40;;
6434;SDS011;3250;42.694;23.278;2023-01-06T05:45:22;7.90;;;4.43;;
6434;SDS011;3250;42.694;23.278;2023-01-06T05:47:50;7.43;;;4.03;;
6434;SDS011;3250;42.694;23.278;2023-01-06T05:50:15;7.23;;;4.30;;
6434;SDS011;3250;42.694;23.278;2023-01-06T05:52:41;6.70;;;4.47;;
6434;SDS011;3250;42.694;23.278;2023-01-06T05:55:07;7.33;;;4.57;;
6434;SDS011;3250;42.694;23.278;2023-01-06T05:57:33;9.38;;;5.55;;
6434;SDS011;3250;42.694;23.278;2023-01-06T06:00:01;7.43;;;3.83;;
6434;SDS011;3250;42.694;23.278;2023-01-06T06:02:30;7.72;;;4.57;;
6434;SDS011;3250;42.694;23.278;2023-01-06T06:04:55;11.40;;;4.77;;
6434;SDS011;3250;42.694;23.278;2023-01-06T06:07:21;7.83;;;4.43;;
6434;SDS011;3250;42.694;23.278;2023-01-06T06:09:46;7.70;;;4.23;;
6434;SDS011;3250;42.694;23.278;2023-01-06T06:12:12;9.10;;;4.87;;
6434;SDS011;3250;42.694;23.278;2023-01-06T06:14:37;6.97;;;4.30;;
6434;SDS011;3250;42.694;23.278;2023-01-06T06:17:03;8.87;;;4.27;;
6434;SDS011;3250;42.694;23.278;2023-01-06T06:19:28;6.03;;;3.73;;
6434;SDS011;3250;42.694;23.278;2023-01-06T06:21:54;5.43;;;3.47;;
6434;SDS011;3250;42.694;23.278;2023-01-06T06:24:19;6.20;;;2.97;;
6434;SDS011;3250;42.694;23.278;2023-01-06T06:26:45;6.83;;;3.40;;
6434;SDS011;3250;42.694;23.278;2023-01-06T06:29:10;10.03;;;3.97;;
6434;SDS011;3250;42.694;23.278;2023-01-06T06:31:35;9.77;;;4.93;;
6434;SDS011;3250;42.694;23.278;2023-01-06T06:34:01;11.10;;;4.53;;
6434;SDS011;3250;42.694;23.278;2023-01-06T06:36:28;8.57;;;4.37;;
6434;SDS011;3250;42.694;23.278;2023-01-06T06:38:54;13.53;;;5.37;;
6434;SDS011;3250;42.694;23.278;2023-01-06T06:41:20;11.60;;;5.73;;
6434;SDS011;3250;42.694;23.278;2023-01-06T06:43:49;18.40;;;6.23;;
6434;SDS011;3250;42.694;23.278;2023-01-06T06:46:15;9.27;;;4.47;;
6434;SDS011;3250;42.694;23.278;2023-01-06T06:48:41;8.40;;;3.77;;
6434;SDS011;3250;42.694;23.278;2023-01-06T06:51:08;7.97;;;3.80;;
6434;SDS011;3250;42.694;23.278;2023-01-06T06:53:36;6.70;;;3.70;;
6434;SDS011;3250;42.694;23.278;2023-01-06T06:56:02;6.77;;;3.53;;
6434;SDS011;3250;42.694;23.278;2023-01-06T06:58:29;7.10;;;4.60;;
6434;SDS011;3250;42.694;23.278;2023-01-06T07:00:55;6.67;;;3.20;;
6434;SDS011;3250;42.694;23.278;2023-01-06T07:03:21;7.73;;;3.27;;
6434;SDS011;3250;42.694;23.278;2023-01-06T07:05:47;8.97;;;3.63;;
6434;SDS011;3250;42.694;23.278;2023-01-06T07:08:14;6.50;;;4.40;;
6434;SDS011;3250;42.694;23.278;2023-01-06T07:10:40;6.87;;;4.00;;
6434;SDS011;3250;42.694;23.278;2023-01-06T07:13:06;7.40;;;4.18;;
6434;SDS011;3250;42.694;23.278;2023-01-06T07:15:32;6.10;;;3.38;;
6434;SDS011;3250;42.694;23.278;2023-01-06T07:18:01;6.45;;;4.25;;
6434;SDS011;3250;42.694;23.278;2023-01-06T07:20:28;5.47;;;3.85;;
6434;SDS011;3250;42.694;23.278;2023-01-06T07:22:54;5.30;;;3.60;;
6434;SDS011;3250;42.694;23.278;2023-01-06T07:25:20;6.85;;;3.92;;
6434;SDS011;3250;42.694;23.278;2023-01-06T07:27:45;6.18;;;3.97;;
6434;SDS011;3250;42.694;23.278;2023-01-06T07:30:11;4.05;;;3.10;;
6434;SDS011;3250;42.694;23.278;2023-01-06T07:32:37;5.93;;;3.40;;
6434;SDS011;3250;42.694;23.278;2023-01-06T07:35:02;18.75;;;3.45;;
6434;SDS011;3250;42.694;23.278;2023-01-06T07:37:28;5.00;;;2.40;;
6434;SDS011;3250;42.694;23.278;2023-01-06T07:39:53;7.13;;;3.85;;
6434;SDS011;3250;42.694;23.278;2023-01-06T07:42:18;5.10;;;3.13;;
6434;SDS011;3250;42.694;23.278;2023-01-06T07:44:44;14.98;;;4.32;;
6434;SDS011;3250;42.694;23.278;2023-01-06T07:47:09;4.82;;;3.08;;
6434;SDS011;3250;42.694;23.278;2023-01-06T07:49:35;4.35;;;3.15;;
6434;SDS011;3250;42.694;23.278;2023-01-06T07:52:00;11.07;;;4.57;;
6434;SDS011;3250;42.694;23.278;2023-01-06T07:54:26;6.30;;;3.97;;
6434;SDS011;3250;42.694;23.278;2023-01-06T07:56:51;8.98;;;3.83;;
6434;SDS011;3250;42.694;23.278;2023-01-06T07:59:17;7.15;;;3.15;;
6434;SDS011;3250;42.694;23.278;2023-01-06T08:01:42;6.55;;;3.28;;
6434;SDS011;3250;42.694;23.278;2023-01-06T08:04:08;6.97;;;3.95;;
6434;SDS011;3250;42.694;23.278;2023-01-06T08:06:33;6.53;;;4.10;;
6434;SDS011;3250;42.694;23.278;2023-01-06T08:08:59;10.98;;;3.75;;
6434;SDS011;3250;42.694;23.278;2023-01-06T08:11:25;6.63;;;3.80;;
6434;SDS011;3250;42.694;23.278;2023-01-06T08:13:51;6.13;;;3.45;;
6434;SDS011;3250;42.694;23.278;2023-01-06T08:16:16;9.52;;;3.97;;
6434;SDS011;3250;42.694;23.278;2023-01-06T08:18:42;6.00;;;3.13;;
6434;SDS011;3250;42.694;23.278;2023-01-06T08:21:08;9.95;;;4.90;;
6434;SDS011;3250;42.694;23.278;2023-01-06T08:23:35;5.80;;;3.90;;
6434;SDS011;3250;42.694;23.278;2023-01-06T08:26:07;9.18;;;3.70;;
6434;SDS011;3250;42.694;23.278;2023-01-06T08:28:35;9.02;;;4.60;;
6434;SDS011;3250;42.694;23.278;2023-01-06T08:31:01;7.05;;;3.75;;
6434;SDS011;3250;42.694;23.278;2023-01-06T08:33:27;5.20;;;2.00;;
6434;SDS011;3250;42.694;23.278;2023-01-06T08:35:59;7.18;;;2.55;;
6434;SDS011;3250;42.694;23.278;2023-01-06T08:38:26;2.25;;;1.58;;
6434;SDS011;3250;42.694;23.278;2023-01-06T08:40:53;1.67;;;1.52;;
6434;SDS011;3250;42.694;23.278;2023-01-06T08:43:20;3.43;;;2.10;;
6434;SDS011;3250;42.694;23.278;2023-01-06T08:45:46;4.03;;;2.20;;
6434;SDS011;3250;42.694;23.278;2023-01-06T08:48:12;3.47;;;1.90;;
6434;SDS011;3250;42.694;23.278;2023-01-06T08:50:38;7.27;;;1.83;;
6434;SDS011;3250;42.694;23.278;2023-01-06T08:53:04;4.40;;;2.70;;
6434;SDS011;3250;42.694;23.278;2023-01-06T08:55:29;6.77;;;3.10;;
6434;SDS011;3250;42.694;23.278;2023-01-06T08:57:55;6.67;;;2.77;;
6434;SDS011;3250;42.694;23.278;2023-01-06T09:00:21;6.23;;;2.17;;
6434;SDS011;3250;42.694;23.278;2023-01-06T09:02:46;9.00;;;3.07;;
6434;SDS011;3250;42.694;23.278;2023-01-06T09:05:11;3.77;;;1.83;;
6434;SDS011;3250;42.694;23.278;2023-01-06T09:07:37;3.33;;;1.80;;
6434;SDS011;3250;42.694;23.278;2023-01-06T09:10:02;5.60;;;3.53;;
6434;SDS011;3250;42.694;23.278;2023-01-06T09:12:28;7.23;;;2.93;;
6434;SDS011;3250;42.694;23.278;2023-01-06T09:14:53;4.20;;;2.53;;
6434;SDS011;3250;42.694;23.278;2023-01-06T09:17:19;4.27;;;2.00;;
6434;SDS011;3250;42.694;23.278;2023-01-06T09:19:44;5.37;;;2.50;;
6434;SDS011;3250;42.694;23.278;2023-01-06T09:22:10;3.07;;;2.13;;
6434;SDS011;3250;42.694;23.278;2023-01-06T09:24:35;7.57;;;2.10;;
6434;SDS011;3250;42.694;23.278;2023-01-06T09:27:00;4.07;;;1.80;;
6434;SDS011;3250;42.694;23.278;2023-01-06T09:29:26;2.37;;;1.90;;
6434;SDS011;3250;42.694;23.278;2023-01-06T09:31:51;5.67;;;3.33;;
6434;SDS011;3250;42.694;23.278;2023-01-06T09:34:17;4.30;;;2.70;;
6434;SDS011;3250;42.694;23.278;2023-01-06T09:36:42;4.13;;;2.00;;
6434;SDS011;3250;42.694;23.278;2023-01-06T09:39:07;11.33;;;3.57;;
6434;SDS011;3250;42.694;23.278;2023-01-06T09:46:57;4.73;;;2.47;;
6434;SDS011;3250;42.694;23.278;2023-01-06T09:52:02;5.53;;;3.03;;
6434;SDS011;3250;42.694;23.278;2023-01-06T09:54:34;9.10;;;3.03;;
6434;SDS011;3250;42.694;23.278;2023-01-06T09:57:09;6.80;;;3.33;;
6434;SDS011;3250;42.694;23.278;2023-01-06T09:59:52;5.37;;;3.40;;
6434;SDS011;3250;42.694;23.278;2023-01-06T10:05:08;5.00;;;2.93;;
6434;SDS011;3250;42.694;23.278;2023-01-06T10:07:46;3.87;;;2.37;;
6434;SDS011;3250;42.694;23.278;2023-01-06T10:10:32;9.97;;;2.77;;
6434;SDS011;3250;42.694;23.278;2023-01-06T10:16:11;8.70;;;4.23;;
6434;SDS011;3250;42.694;23.278;2023-01-06T10:26:56;2.40;;;1.60;;
6434;SDS011;3250;42.694;23.278;2023-01-06T10:29:27;4.27;;;1.70;;
6434;SDS011;3250;42.694;23.278;2023-01-06T10:31:58;5.63;;;2.27;;
6434;SDS011;3250;42.694;23.278;2023-01-06T10:34:27;7.73;;;3.40;;
6434;SDS011;3250;42.694;23.278;2023-01-06T10:39:34;3.43;;;1.80;;
6434;SDS011;3250;42.694;23.278;2023-01-06T10:42:04;2.07;;;1.40;;
6434;SDS011;3250;42.694;23.278;2023-01-06T10:44:55;4.87;;;2.00;;
6434;SDS011;3250;42.694;23.278;2023-01-06T10:47:31;5.70;;;2.90;;
6434;SDS011;3250;42.694;23.278;2023-01-06T10:49:57;6.23;;;2.30;;
6434;SDS011;3250;42.694;23.278;2023-01-06T10:52:24;9.23;;;3.47;;
6434;SDS011;3250;42.694;23.278;2023-01-06T10:54:51;6.47;;;2.47;;
6434;SDS011;3250;42.694;23.278;2023-01-06T10:57:25;3.93;;;1.63;;
6434;SDS011;3250;42.694;23.278;2023-01-06T11:00:12;7.47;;;2.33;;
6434;SDS011;3250;42.694;23.278;2023-01-06T11:02:44;5.77;;;2.27;;
6434;SDS011;3250;42.694;23.278;2023-01-06T11:05:16;6.10;;;2.43;;
6434;SDS011;3250;42.694;23.278;2023-01-06T11:07:54;5.53;;;2.63;;
6434;SDS011;3250;42.694;23.278;2023-01-06T11:10:28;3.13;;;2.20;;
6434;SDS011;3250;42.694;23.278;2023-01-06T11:12:59;5.30;;;4.20;;
6434;SDS011;3250;42.694;23.278;2023-01-06T11:15:33;7.60;;;3.90;;
6434;SDS011;3250;42.694;23.278;2023-01-06T11:18:03;4.33;;;2.80;;
6434;SDS011;3250;42.694;23.278;2023-01-06T11:20:31;3.10;;;2.27;;
6434;SDS011;3250;42.694;23.278;2023-01-06T11:23:17;6.63;;;2.73;;
6434;SDS011;3250;42.694;23.278;2023-01-06T11:25:58;19.10;;;5.37;;
6434;SDS011;3250;42.694;23.278;2023-01-06T11:28:38;10.30;;;4.10;;
6434;SDS011;3250;42.694;23.278;2023-01-06T11:31:08;4.47;;;2.80;;
6434;SDS011;3250;42.694;23.278;2023-01-06T11:36:15;8.30;;;2.83;;
6434;SDS011;3250;42.694;23.278;2023-01-06T11:38:42;5.73;;;2.27;;
6434;SDS011;3250;42.694;23.278;2023-01-06T11:41:11;7.30;;;2.83;;
6434;SDS011;3250;42.694;23.278;2023-01-06T11:43:37;7.67;;;2.47;;
6434;SDS011;3250;42.694;23.278;2023-01-06T11:46:09;3.90;;;2.13;;
6434;SDS011;3250;42.694;23.278;2023-01-06T11:48:47;2.83;;;2.43;;
6434;SDS011;3250;42.694;23.278;2023-01-06T11:51:29;7.27;;;3.47;;
6434;SDS011;3250;42.694;23.278;2023-01-06T11:54:19;10.07;;;4.90;;
6434;SDS011;3250;42.694;23.278;2023-01-06T11:56:57;7.70;;;3.80;;
6434;SDS011;3250;42.694;23.278;2023-01-06T12:05:34;4.20;;;2.33;;
6434;SDS011;3250;42.694;23.278;2023-01-06T12:11:11;4.97;;;2.70;;
6434;SDS011;3250;42.694;23.278;2023-01-06T12:13:44;2.87;;;2.17;;
6434;SDS011;3250;42.694;23.278;2023-01-06T12:16:19;4.67;;;2.70;;
6434;SDS011;3250;42.694;23.278;2023-01-06T12:19:09;6.37;;;3.40;;
6434;SDS011;3250;42.694;23.278;2023-01-06T12:21:42;7.00;;;2.93;;
6434;SDS011;3250;42.694;23.278;2023-01-06T12:24:09;7.77;;;3.93;;
6434;SDS011;3250;42.694;23.278;2023-01-06T12:26:39;8.43;;;2.80;;
6434;SDS011;3250;42.694;23.278;2023-01-06T12:29:06;8.07;;;2.90;;
6434;SDS011;3250;42.694;23.278;2023-01-06T12:34:20;5.87;;;3.50;;
6434;SDS011;3250;42.694;23.278;2023-01-06T12:39:46;9.47;;;4.83;;
6434;SDS011;3250;42.694;23.278;2023-01-06T12:42:22;9.03;;;3.97;;
6434;SDS011;3250;42.694;23.278;2023-01-06T12:45:03;4.57;;;2.60;;
6434;SDS011;3250;42.694;23.278;2023-01-06T12:47:53;6.27;;;2.77;;
6434;SDS011;3250;42.694;23.278;2023-01-06T12:53:25;5.07;;;2.80;;
6434;SDS011;3250;42.694;23.278;2023-01-06T12:56:17;6.80;;;3.40;;
6434;SDS011;3250;42.694;23.278;2023-01-06T12:58:48;6.37;;;3.50;;
6434;SDS011;3250;42.694;23.278;2023-01-06T13:07:17;8.60;;;2.93;;
6434;SDS011;3250;42.694;23.278;2023-01-06T13:12:50;4.17;;;2.03;;
6434;SDS011;3250;42.694;23.278;2023-01-06T13:15:26;4.07;;;2.40;;
6434;SDS011;3250;42.694;23.278;2023-01-06T13:20:27;4.97;;;2.60;;
6434;SDS011;3250;42.694;23.278;2023-01-06T13:25:43;6.63;;;3.50;;
6434;SDS011;3250;42.694;23.278;2023-01-06T13:31:21;4.10;;;2.27;;
6434;SDS011;3250;42.694;23.278;2023-01-06T13:39:24;11.77;;;4.90;;
6434;SDS011;3250;42.694;23.278;2023-01-06T13:41:54;8.33;;;4.37;;
6434;SDS011;3250;42.694;23.278;2023-01-06T13:44:24;14.13;;;5.03;;
6434;SDS011;3250;42.694;23.278;2023-01-06T13:46:53;5.77;;;3.57;;
6434;SDS011;3250;42.694;23.278;2023-01-06T13:49:30;8.60;;;3.80;;
6434;SDS011;3250;42.694;23.278;2023-01-06T13:51:56;13.00;;;4.80;;
6434;SDS011;3250;42.694;23.278;2023-01-06T13:57:17;12.17;;;5.10;;
6434;SDS011;3250;42.694;23.278;2023-01-06T14:04:58;15.63;;;7.57;;
6434;SDS011;3250;42.694;23.278;2023-01-06T14:07:34;19.43;;;7.23;;
6434;SDS011;3250;42.694;23.278;2023-01-06T14:10:03;19.10;;;8.67;;
6434;SDS011;3250;42.694;23.278;2023-01-06T14:12:31;27.93;;;8.67;;
6434;SDS011;3250;42.694;23.278;2023-01-06T14:15:02;28.23;;;10.33;;
6434;SDS011;3250;42.694;23.278;2023-01-06T14:17:39;24.10;;;12.10;;
6434;SDS011;3250;42.694;23.278;2023-01-06T14:20:21;24.80;;;10.63;;
6434;SDS011;3250;42.694;23.278;2023-01-06T14:25:50;18.13;;;8.63;;
6434;SDS011;3250;42.694;23.278;2023-01-06T14:30:44;13.90;;;6.27;;
6434;SDS011;3250;42.694;23.278;2023-01-06T14:35:53;17.80;;;8.25;;
6434;SDS011;3250;42.694;23.278;2023-01-06T14:38:26;36.43;;;15.83;;
6434;SDS011;3250;42.694;23.278;2023-01-06T14:41:01;42.80;;;17.13;;
6434;SDS011;3250;42.694;23.278;2023-01-06T14:43:31;41.87;;;14.73;;
6434;SDS011;3250;42.694;23.278;2023-01-06T14:46:06;33.90;;;14.57;;
6434;SDS011;3250;42.694;23.278;2023-01-06T14:48:40;18.13;;;9.27;;
6434;SDS011;3250;42.694;23.278;2023-01-06T14:51:11;25.52;;;11.77;;
6434;SDS011;3250;42.694;23.278;2023-01-06T14:53:44;23.67;;;11.68;;
6434;SDS011;3250;42.694;23.278;2023-01-06T14:56:16;36.10;;;14.40;;
6434;SDS011;3250;42.694;23.278;2023-01-06T14:58:43;26.17;;;12.68;;
6434;SDS011;3250;42.694;23.278;2023-01-06T15:01:22;29.37;;;13.17;;
6434;SDS011;3250;42.694;23.278;2023-01-06T15:03:57;25.38;;;12.95;;
6434;SDS011;3250;42.694;23.278;2023-01-06T15:06:25;23.98;;;15.07;;
6434;SDS011;3250;42.694;23.278;2023-01-06T15:08:52;46.37;;;20.33;;
6434;SDS011;3250;42.694;23.278;2023-01-06T15:11:27;68.38;;;29.27;;
6434;SDS011;3250;42.694;23.278;2023-01-06T15:13:54;45.47;;;21.47;;
6434;SDS011;3250;42.694;23.278;2023-01-06T15:18:54;26.75;;;13.85;;
6434;SDS011;3250;42.694;23.278;2023-01-06T15:21:20;28.00;;;13.95;;
6434;SDS011;3250;42.694;23.278;2023-01-06T15:23:47;29.20;;;13.93;;
6434;SDS011;3250;42.694;23.278;2023-01-06T15:26:19;21.88;;;11.43;;
6434;SDS011;3250;42.694;23.278;2023-01-06T15:31:21;25.02;;;11.18;;
6434;SDS011;3250;42.694;23.278;2023-01-06T15:33:47;17.83;;;10.45;;
6434;SDS011;3250;42.694;23.278;2023-01-06T15:36:16;17.23;;;9.55;;
6434;SDS011;3250;42.694;23.278;2023-01-06T15:38:46;15.17;;;8.47;;
6434;SDS011;3250;42.694;23.278;2023-01-06T15:41:13;17.30;;;8.70;;
6434;SDS011;3250;42.694;23.278;2023-01-06T15:44:01;16.17;;;8.80;;
6434;SDS011;3250;42.694;23.278;2023-01-06T15:46:45;21.27;;;9.93;;
6434;SDS011;3250;42.694;23.278;2023-01-06T15:52:01;20.67;;;11.35;;
6434;SDS011;3250;42.694;23.278;2023-01-06T15:54:29;27.50;;;12.83;;
6434;SDS011;3250;42.694;23.278;2023-01-06T15:56:56;25.63;;;12.30;;
6434;SDS011;3250;42.694;23.278;2023-01-06T15:59:22;27.17;;;13.68;;
6434;SDS011;3250;42.694;23.278;2023-01-06T16:01:49;23.33;;;12.00;;
6434;SDS011;3250;42.694;23.278;2023-01-06T16:04:17;16.25;;;8.65;;
6434;SDS011;3250;42.694;23.278;2023-01-06T16:06:42;18.27;;;8.97;;
6434;SDS011;3250;42.694;23.278;2023-01-06T16:14:45;19.60;;;10.00;;
6434;SDS011;3250;42.694;23.278;2023-01-06T16:17:29;20.42;;;10.50;;
6434;SDS011;3250;42.694;23.278;2023-01-06T16:20:01;23.48;;;12.73;;
6434;SDS011;3250;42.694;23.278;2023-01-06T16:25:07;20.67;;;10.15;;
6434;SDS011;3250;42.694;23.278;2023-01-06T16:27:49;19.30;;;10.00;;
6434;SDS011;3250;42.694;23.278;2023-01-06T16:30:20;27.52;;;14.02;;
6434;SDS011;3250;42.694;23.278;2023-01-06T16:32:50;20.63;;;11.15;;
6434;SDS011;3250;42.694;23.278;2023-01-06T16:35:17;24.80;;;11.65;;
6434;SDS011;3250;42.694;23.278;2023-01-06T16:37:47;25.00;;;12.70;;
6434;SDS011;3250;42.694;23.278;2023-01-06T16:40:14;22.23;;;12.17;;
6434;SDS011;3250;42.694;23.278;2023-01-06T16:42:40;21.20;;;11.23;;
6434;SDS011;3250;42.694;23.278;2023-01-06T16:47:43;26.83;;;14.20;;
6434;SDS011;3250;42.694;23.278;2023-01-06T16:52:39;19.83;;;10.07;;
6434;SDS011;3250;42.694;23.278;2023-01-06T16:55:15;23.67;;;11.57;;
6434;SDS011;3250;42.694;23.278;2023-01-06T16:57:44;28.17;;;14.10;;
6434;SDS011;3250;42.694;23.278;2023-01-06T17:00:12;19.67;;;11.73;;
6434;SDS011;3250;42.694;23.278;2023-01-06T17:02:38;16.65;;;10.70;;
6434;SDS011;3250;42.694;23.278;2023-01-06T17:05:08;21.40;;;10.10;;
6434;SDS011;3250;42.694;23.278;2023-01-06T17:08:03;22.27;;;11.33;;
6434;SDS011;3250;42.694;23.278;2023-01-06T17:10:29;18.30;;;9.67;;
6434;SDS011;3250;42.694;23.278;2023-01-06T17:12:56;21.23;;;10.57;;
6434;SDS011;3250;42.694;23.278;2023-01-06T17:15:43;26.37;;;11.13;;
6434;SDS011;3250;42.694;23.278;2023-01-06T17:18:28;25.67;;;11.80;;
6434;SDS011;3250;42.694;23.278;2023-01-06T17:20:59;17.33;;;8.27;;
6434;SDS011;3250;42.694;23.278;2023-01-06T17:23:36;14.13;;;7.90;;
6434;SDS011;3250;42.694;23.278;2023-01-06T17:26:08;19.70;;;8.90;;
6434;SDS011;3250;42.694;23.278;2023-01-06T17:28:37;22.40;;;11.25;;
6434;SDS011;3250;42.694;23.278;2023-01-06T17:31:05;31.35;;;14.63;;
6434;SDS011;3250;42.694;23.278;2023-01-06T17:33:35;35.83;;;17.35;;